Encino, CA (91426)

2:20 PM PDT on October 23, 2014 (GMT -0700)
Encino Hills | Change Station
CLOSE
Current Station
Personal Weather Station
Location: Encino, CA
Elevation: 981 ft
Nearby Weather Stations

Elev 981 ft 34.14 °N, 118.49 °W | Updated 14 seconds ago

Partly Cloudy
Partly Cloudy
85.8 °F
Feels Like 83 °F
N
1.0
Wind Variable Wind from WSW
Gusts 4.0 mph

Today
High -- | Low -- °F
--% Chance of Precip.
Yesterday
High -- | Low -- °F
Precip. -- in
7:05 AM 6:10 PM
Waning Crescent, 0% visible
Pressure 29.92 in
Visibility 10.0 miles
Clouds Few 30000 ft
Heat Index 83 °F
Dew Point 46 °F
Humidity 25%
Rainfall 0.00 in
Snow Depth Not available.
UV 5 out of 12
Pollen 3.70 out of 12
Ozone Moderate
PM2.5 Moderate
Flu Activity Sporadic
METAR KVNY 232051Z VRB06KT 10SM FEW300 31/02 A2994 RMK AO2 SLP131 T03110022 58021

More Conditions Fewer Conditions

Pressure 29.92 in
Visibility 10.0 miles
Clouds Few 30000 ft
Heat Index 83 °F
Dew Point 46 °F
Humidity 25%
Rainfall 0.00 in
Snow Depth Not available.
UV 5 out of 12
Pollen 3.70 out of 12
Ozone Moderate
PM2.5 Moderate
Flu Activity Sporadic
METAR KVNY 232051Z VRB06KT 10SM FEW300 31/02 A2994 RMK AO2 SLP131 T03110022 58021

More Conditions Fewer Conditions

10-Day Weather Forecast

Almanac

Astronomy

Oct. 23, 2014 Rise Set
Actual Time 7:05 AM PDT 6:10 PM PDT
Civil Twilight 6:40 AM PDT 6:35 PM PDT
Nautical Twilight 6:11 AM PDT 7:05 PM PDT
Astronomical Twilight 5:42 AM PDT 7:34 PM PDT
Moon 6:51 AM PDT 6:15 PM PDT
Length of Visible Light 11h 55m
Length of Day
11h 04m
Tomorrow will be 1m 57s shorter.
Waning Crescent, 0% of the Moon is Illuminated
Today
Waning Crescent
Oct 23
New
Oct 30
First Quarter
Nov 6
Full
Nov 14
Last Quarter

Today's Extremes

State Highs State Lows

Community

WunderPhotos

Upload Photos

1,764,374 photos uploaded!

WunderBlogs® & News

Nearby

Air Quality

  Air Quality AQ Index Pollutant
Yesterday Moderate
PM2.5
Yesterday Moderate
OZONE
Current Moderate
OZONE
Current Moderate
PM2.5
Friday Good
PM10
Friday Moderate
OZONE
Friday Good
CO
Friday Good
NO2

Snow Depth

Station Depth Elevation
Leavitt Meadows 0 in 7200 ft
Summit Meadow 1 in 9122 ft
Monitor Pass 0 in 8350 ft
Echo Peak 0 in 7800 ft
Rubicon #2 0 in 7500 ft

Earthquake Activity

City Distance Mag. Time & Date
Corona, California 52 miles 2.5 1:09 PM PDT
2014-10-23
Solvang, California 95 miles 2.6 5:35 PM PDT
2014-10-22
Kettleman City, California 137 miles 2.5 9:08 AM PDT
2014-10-22
Minimum magnitude displayed is 2.5.

Coastal Water Temperatures

Place Temperature
Santa Monica Pier 69.1 °F
Los Angeles, CA 69.1 °F
La Jolla, CA 71.1 °F

Nearby Weather Stations